Time;durP1;ratioP1;P1;durP2;ratioP2;P2;SDS_P1;SDS_P2;PMS_P1;PMS_P2;Temp;Humidity;BMP_temperature;BMP_pressure;BME280_temperature;BME280_humidity;BME280_pressure;Samples;Min_cycle;Max_cycle;Signal;HPM_P1;HPM_P2
2024/01/18 10:35:01;;;;;;;;;;;;;;;2.40;80.45;97635.56;1085916;54;1322;-78
2024/01/18 10:36:01;;;;;;;;;;;;;;;2.46;80.17;97634.94;1086509;47;1496;-78
2024/01/18 10:37:06;;;;;;;;;;;;;;;2.37;80.46;97643.75;1086390;47;1411;-78
2024/01/18 10:38:07;;;;;;;;;;;;;;;2.51;80.12;97650.31;1087210;46;1646;-78
2024/01/18 10:39:17;;;;;;;;;;;;;;;2.36;80.18;97646.56;1086945;47;1641;-78
2024/01/18 10:40:19;;;;;;;;;;;;;;;2.46;80.06;97642.00;1087396;47;1031;-78
2024/01/18 10:41:24;;;;;;;;;;;;;;;2.41;80.21;97644.28;1087082;46;1161;-78
2024/01/18 10:42:26;;;;;;;;;;;;;;;2.33;80.27;97651.16;1086803;54;1158;-77
2024/01/18 10:43:32;;;;;;;;;;;;;;;2.30;80.55;97643.53;1086531;54;1486;-77
2024/01/18 10:44:37;;;;;;;;;;;;;;;2.38;80.25;97653.34;1087291;54;1123;-78
2024/01/18 10:45:40;;;;;;;;;;;;;;;2.45;80.17;97653.56;1087732;47;1074;-78
2024/01/18 10:46:42;;;;;;;;;;;;;;;2.37;80.44;97656.94;1088209;54;1007;-78
2024/01/18 10:47:47;;;;;;;;;;;;;;;2.36;80.37;97660.56;1088247;47;1845;-78
2024/01/18 10:48:49;;;;;;;;;;;;;;;2.32;80.19;97653.91;1088276;47;988;-79
2024/01/18 10:49:54;;;;;;;;;;;;;;;2.32;80.40;97654.75;1088241;54;1240;-78
2024/01/18 10:51:00;;;;;;;;;;;;;;;2.22;80.55;97650.56;1088256;47;1538;-78
2024/01/18 10:52:07;;;;;;;;;;;;;;;2.22;80.98;97659.28;1088119;47;1273;-79
2024/01/18 10:53:10;;;;;;;;;;;;;;;2.22;81.02;97664.56;1088299;54;994;-80
2024/01/18 10:54:16;;;;;;;;;;;;;;;2.14;80.90;97657.38;1088265;46;1260;-78
2024/01/18 10:55:19;;;;;;;;;;;;;;;2.18;80.98;97665.81;1088288;54;951;-78
2024/01/18 10:56:31;;;;;;;;;;;;;;;2.21;81.05;97667.34;1088408;46;1117;-78
2024/01/18 10:57:32;;;;;;;;;;;;;;;2.18;81.20;97676.38;1088592;46;1036;-78
2024/01/18 10:58:38;;;;;;;;;;;;;;;2.11;81.40;97673.53;1088271;54;1125;-79
2024/01/18 10:59:40;;;;;;;;;;;;;;;2.22;81.15;97677.72;1088293;46;1094;-81
2024/01/18 11:00:46;;;;;;;;;;;;;;;2.28;80.88;97671.84;1087855;46;1118;-79
2024/01/18 11:01:47;;;;;;;;;;;;;;;2.31;80.99;97678.66;1086652;46;1075;-80
2024/01/18 11:02:52;;;;;;;;;;;;;;;2.32;80.84;97678.50;1087683;54;1014;-81
2024/01/18 11:03:55;;;;;;;;;;;;;;;2.20;81.28;97682.31;1087062;54;1421;-81
2024/01/18 11:04:59;;;;;;;;;;;;;;;2.22;81.31;97685.66;1087948;46;986;-83
2024/01/18 11:06:09;;;;;;;;;;;;;;;2.27;81.00;97688.66;1087912;54;1082;-81
2024/01/18 11:07:20;;;;;;;;;;;;;;;2.25;80.86;97695.06;1088071;46;1856;-83
2024/01/18 11:08:45;;;;;;;;;;;;;;;2.27;80.88;97701.00;1087910;54;947;-80
2024/01/18 11:09:47;;;;;;;;;;;;;;;2.30;80.73;97703.38;1087857;47;948;-80
2024/01/18 11:10:53;;;;;;;;;;;;;;;2.25;80.96;97700.31;1087849;47;1093;-81
2024/01/18 11:12:05;;;;;;;;;;;;;;;2.26;81.21;97702.84;1087904;54;1029;-80
2024/01/18 11:13:10;;;;;;;;;;;;;;;2.30;80.76;97706.81;1087862;54;999;-80
2024/01/18 11:17:48;;;;;;;;;;;;;;;2.27;81.32;97708.91;1087875;47;881;-78
2024/01/18 11:18:50;;;;;;;;;;;;;;;2.38;81.00;97710.50;1087296;54;1035;-80
2024/01/18 11:20:12;;;;;;;;;;;;;;;2.39;80.96;97704.25;1086383;46;1086;-80
2024/01/18 11:21:15;;;;;;;;;;;;;;;2.23;81.35;97713.66;1087197;54;1086;-80
2024/01/18 11:22:25;;;;;;;;;;;;;;;2.31;81.15;97711.13;1088265;54;1009;-81
2024/01/18 11:23:28;;;;;;;;;;;;;;;2.38;80.75;97713.13;1086583;46;1428;-79
2024/01/18 11:24:32;;;;;;;;;;;;;;;2.34;81.03;97712.63;1084569;54;1147;-78
2024/01/18 11:25:34;;;;;;;;;;;;;;;2.38;80.77;97721.06;1084702;54;883;-79
2024/01/18 11:26:38;;;;;;;;;;;;;;;2.44;80.79;97720.47;1084607;47;1190;-79
2024/01/18 11:27:40;;;;;;;;;;;;;;;2.48;80.65;97725.31;1084839;47;1930;-80
2024/01/18 11:28:44;;;;;;;;;;;;;;;2.48;80.74;97732.38;1084710;47;1172;-79
2024/01/18 11:29:46;;;;;;;;;;;;;;;2.55;80.80;97732.59;1083875;47;1168;-79
2024/01/18 11:30:50;;;;;;;;;;;;;;;2.55;80.69;97743.97;1083653;46;1098;-79
2024/01/18 11:31:52;;;;;;;;;;;;;;;2.53;80.68;97745.94;1087993;54;1035;-79
2024/01/18 11:32:57;;;;;;;;;;;;;;;2.55;80.45;97740.50;1085217;54;1158;-79
2024/01/18 11:34:01;;;;;;;;;;;;;;;2.57;80.52;97741.19;1084665;47;1448;-79
2024/01/18 11:35:12;;;;;;;;;;;;;;;2.61;80.57;97747.81;1084642;54;1193;-81
2024/01/18 11:36:16;;;;;;;;;;;;;;;2.60;80.44;97752.28;1084662;47;1098;-79
2024/01/18 11:37:21;;;;;;;;;;;;;;;2.60;80.62;97752.28;1084651;54;1146;-78
2024/01/18 11:38:24;;;;;;;;;;;;;;;2.62;80.90;97755.59;1085190;54;1069;-79
2024/01/18 11:39:43;;;;;;;;;;;;;;;2.65;80.84;97755.28;1085280;54;1118;-79
2024/01/18 11:40:44;;;;;;;;;;;;;;;2.71;80.58;97755.69;1085293;46;1106;-81
2024/01/18 11:41:48;;;;;;;;;;;;;;;2.61;80.33;97764.50;1085244;54;1162;-80
2024/01/18 11:42:51;;;;;;;;;;;;;;;2.68;80.07;97762.09;1084334;47;1153;-78
2024/01/18 11:43:56;;;;;;;;;;;;;;;2.68;80.10;97769.16;1085194;51;1372;-78
2024/01/18 11:44:57;;;;;;;;;;;;;;;2.73;79.74;97766.91;1085952;47;1125;-80
2024/01/18 11:46:01;;;;;;;;;;;;;;;2.72;79.42;97768.72;1085063;54;1146;-81
2024/01/18 11:47:03;;;;;;;;;;;;;;;2.76;79.55;97774.50;1085407;47;1584;-80
2024/01/18 11:48:04;;;;;;;;;;;;;;;2.78;79.53;97772.56;1085127;47;1892;-80
2024/01/18 11:49:07;;;;;;;;;;;;;;;2.73;79.67;97780.09;1085367;47;1078;-80
2024/01/18 11:50:09;;;;;;;;;;;;;;;2.78;79.15;97781.31;1088057;54;1541;-82
2024/01/18 11:51:12;;;;;;;;;;;;;;;2.73;79.24;97790.66;1088085;46;964;-82
2024/01/18 11:52:16;;;;;;;;;;;;;;;2.79;78.76;97796.16;1087248;54;1016;-80
2024/01/18 11:53:20;;;;;;;;;;;;;;;2.74;78.76;97787.03;1085874;47;1090;-80
2024/01/18 11:54:21;;;;;;;;;;;;;;;2.76;79.27;97795.63;1086178;47;1345;-79
2024/01/18 11:55:25;;;;;;;;;;;;;;;2.87;78.77;97799.88;1085933;54;1051;-80
2024/01/18 11:56:27;;;;;;;;;;;;;;;2.89;78.76;97804.00;1085693;54;1115;-79
2024/01/18 11:57:32;;;;;;;;;;;;;;;2.86;78.74;97808.75;1085889;47;1157;-81
2024/01/18 11:58:33;;;;;;;;;;;;;;;2.80;78.94;97816.28;1085461;54;1154;-81
2024/01/18 11:59:36;;;;;;;;;;;;;;;2.90;78.90;97816.22;1085083;47;1131;-80
2024/01/18 12:00:37;;;;;;;;;;;;;;;2.89;79.13;97821.63;1084898;46;983;-80
2024/01/18 12:01:40;;;;;;;;;;;;;;;2.89;79.12;97819.84;1085232;47;1079;-79
2024/01/18 12:02:42;;;;;;;;;;;;;;;2.93;79.07;97820.38;1084610;47;1605;-80
2024/01/18 12:03:45;;;;;;;;;;;;;;;2.94;78.80;97824.66;1084445;47;1312;-80
2024/01/18 12:04:47;;;;;;;;;;;;;;;2.96;79.04;97820.88;1085025;47;1166;-80
2024/01/18 12:05:51;;;;;;;;;;;;;;;2.94;78.95;97830.75;1085576;54;1157;-80
2024/01/18 12:06:52;;;;;;;;;;;;;;;3.01;78.65;97832.81;1084942;47;1541;-80
2024/01/18 12:07:58;;;;;;;;;;;;;;;3.11;78.45;97838.84;1084487;54;1879;-79
2024/01/18 12:08:59;;;;;;;;;;;;;;;3.13;78.19;97839.50;1085039;54;1121;-80
2024/01/18 12:10:02;;;;;;;;;;;;;;;3.16;78.21;97841.84;1084828;47;1154;-80
2024/01/18 12:11:04;;;;;;;;;;;;;;;2.98;78.53;97844.50;1085175;54;1114;-80
2024/01/18 12:12:05;;;;;;;;;;;;;;;3.01;78.51;97851.31;1085254;54;1208;-79
2024/01/18 12:13:09;;;;;;;;;;;;;;;3.01;78.28;97848.66;1085135;47;1132;-79
2024/01/18 12:14:11;;;;;;;;;;;;;;;3.00;77.68;97852.28;1085440;54;1422;-79
2024/01/18 12:15:17;;;;;;;;;;;;;;;2.97;77.64;97851.59;1085111;47;1137;-80
2024/01/18 12:16:19;;;;;;;;;;;;;;;2.90;77.65;97850.53;1086390;47;1614;-80
2024/01/18 12:17:22;;;;;;;;;;;;;;;2.86;77.22;97845.72;1085702;47;1015;-79
2024/01/18 12:18:23;;;;;;;;;;;;;;;2.67;77.41;97851.91;1085459;47;1209;-82
2024/01/18 12:19:36;;;;;;;;;;;;;;;2.53;77.76;97843.53;1085709;47;972;-80
2024/01/18 12:20:41;;;;;;;;;;;;;;;2.56;77.88;97848.50;1085379;46;1006;-80
2024/01/18 12:21:42;;;;;;;;;;;;;;;2.59;77.82;97850.84;1085067;54;1074;-80
2024/01/18 12:22:45;;;;;;;;;;;;;;;2.55;78.23;97861.84;1085754;54;1330;-79
2024/01/18 12:23:49;;;;;;;;;;;;;;;2.59;78.29;97864.06;1085417;54;1307;-80
2024/01/18 12:24:53;;;;;;;;;;;;;;;2.57;78.74;97862.53;1085296;47;1248;-80
2024/01/18 12:25:53;;;;;;;;;;;;;;;2.55;78.78;97870.59;1085018;47;1406;-79
2024/01/18 12:26:57;;;;;;;;;;;;;;;2.56;78.74;97860.88;1085043;47;1143;-80
2024/01/18 12:27:57;;;;;;;;;;;;;;;2.54;78.10;97868.94;1084767;54;1901;-79
2024/01/18 12:29:01;;;;;;;;;;;;;;;2.46;78.12;97872.31;1084823;54;1170;-80
2024/01/18 12:30:02;;;;;;;;;;;;;;;2.36;78.58;97875.97;1084872;54;1098;-80
2024/01/18 12:31:06;;;;;;;;;;;;;;;2.50;78.00;97870.22;1085160;54;1059;-80
2024/01/18 12:32:08;;;;;;;;;;;;;;;2.45;77.40;97877.75;1085137;54;1170;-80
2024/01/18 12:33:14;;;;;;;;;;;;;;;2.39;77.92;97878.31;1085124;54;1139;-79
2024/01/18 12:34:14;;;;;;;;;;;;;;;2.52;77.69;97876.19;1085106;54;1376;-80
2024/01/18 12:35:17;;;;;;;;;;;;;;;2.54;77.66;97879.50;1084915;54;1134;-80
2024/01/18 12:36:18;;;;;;;;;;;;;;;2.49;77.51;97892.28;1085115;54;1150;-80
2024/01/18 12:37:23;;;;;;;;;;;;;;;2.59;77.28;97900.97;1084822;47;1189;-79
2024/01/18 12:38:23;;;;;;;;;;;;;;;2.61;76.76;97896.41;1085045;47;1087;-79
2024/01/18 12:39:30;;;;;;;;;;;;;;;2.47;77.43;97904.78;1085366;54;1214;-79
2024/01/18 12:40:31;;;;;;;;;;;;;;;2.53;77.50;97909.50;1084683;47;1412;-81
2024/01/18 12:41:34;;;;;;;;;;;;;;;2.53;76.92;97914.78;1084890;47;1162;-80
2024/01/18 12:42:35;;;;;;;;;;;;;;;2.47;77.42;97910.06;1084705;47;1189;-79
2024/01/18 12:43:38;;;;;;;;;;;;;;;2.48;76.96;97907.28;1084686;54;1257;-80
2024/01/18 12:44:40;;;;;;;;;;;;;;;2.46;77.40;97921.56;1084721;54;1361;-79
2024/01/18 12:45:44;;;;;;;;;;;;;;;2.38;77.40;97921.47;1085245;54;1133;-79
2024/01/18 12:46:45;;;;;;;;;;;;;;;2.26;77.41;97931.38;1084964;47;1098;-79
2024/01/18 12:47:50;;;;;;;;;;;;;;;2.23;77.56;97926.38;1085239;47;1922;-79
2024/01/18 12:48:50;;;;;;;;;;;;;;;2.21;77.79;97931.81;1084653;47;1181;-80
2024/01/18 12:49:55;;;;;;;;;;;;;;;2.30;77.18;97933.59;1084850;47;1181;-80
2024/01/18 12:50:56;;;;;;;;;;;;;;;2.23;77.46;97937.78;1085118;47;1003;-80
2024/01/18 12:52:00;;;;;;;;;;;;;;;2.11;77.69;97942.41;1085651;54;1094;-81
2024/01/18 12:53:00;;;;;;;;;;;;;;;2.10;77.36;97942.50;1085754;47;1068;-79
2024/01/18 12:54:04;;;;;;;;;;;;;;;2.16;77.04;97939.34;1084886;47;1365;-79
2024/01/18 12:55:08;;;;;;;;;;;;;;;2.10;77.59;97951.28;1084993;47;1173;-78
2024/01/18 12:56:12;;;;;;;;;;;;;;;2.17;77.17;97952.34;1085269;47;1162;-80
2024/01/18 12:57:13;;;;;;;;;;;;;;;2.15;77.39;97958.75;1084328;54;1619;-80
2024/01/18 12:58:17;;;;;;;;;;;;;;;2.19;76.93;97965.38;1084629;54;1172;-79
2024/01/18 12:59:18;;;;;;;;;;;;;;;2.21;76.95;97963.44;1085134;54;1070;-79
2024/01/18 13:00:22;;;;;;;;;;;;;;;2.24;76.42;97967.59;1084612;47;1174;-79
2024/01/18 13:01:27;;;;;;;;;;;;;;;2.18;76.85;97967.22;1084684;54;1169;-80
2024/01/18 13:02:30;;;;;;;;;;;;;;;2.20;76.76;97964.41;1084734;54;1059;-79
2024/01/18 13:03:31;;;;;;;;;;;;;;;2.09;76.93;97962.78;1084998;54;1405;-79
2024/01/18 13:04:36;;;;;;;;;;;;;;;2.02;77.39;97974.88;1085195;54;1081;-79
2024/01/18 13:05:41;;;;;;;;;;;;;;;1.97;77.81;97977.94;1084449;47;1177;-80
2024/01/18 13:06:45;;;;;;;;;;;;;;;2.05;77.27;97981.66;1084462;54;1205;-79
2024/01/18 13:07:45;;;;;;;;;;;;;;;2.10;77.53;97980.28;1084778;54;1891;-79
2024/01/18 13:08:50;;;;;;;;;;;;;;;2.11;77.37;97979.31;1084923;47;1030;-80
2024/01/18 13:09:51;;;;;;;;;;;;;;;2.24;77.43;97989.53;1085367;47;1440;-79
2024/01/18 13:10:57;;;;;;;;;;;;;;;2.21;77.02;97997.72;1085577;54;1630;-79
2024/01/18 13:11:59;;;;;;;;;;;;;;;2.21;77.14;97989.00;1085104;47;1141;-79
2024/01/18 13:13:03;;;;;;;;;;;;;;;2.01;77.43;97994.28;1085229;54;1094;-79
2024/01/18 13:14:05;;;;;;;;;;;;;;;1.98;77.64;97998.06;1085000;47;1425;-80
2024/01/18 13:15:08;;;;;;;;;;;;;;;2.01;77.52;97989.03;1085371;47;1084;-79
2024/01/18 13:16:09;;;;;;;;;;;;;;;2.02;77.46;97994.16;1085264;54;1105;-80
2024/01/18 13:17:17;;;;;;;;;;;;;;;2.05;77.00;98005.38;1085326;47;1165;-80
2024/01/18 13:18:18;;;;;;;;;;;;;;;2.06;76.97;98010.50;1085113;47;1174;-80
2024/01/18 13:19:22;;;;;;;;;;;;;;;2.14;76.94;98021.19;1085303;47;1155;-80
2024/01/18 13:20:23;;;;;;;;;;;;;;;2.14;76.95;98026.44;1085535;54;1073;-79
2024/01/18 13:21:26;;;;;;;;;;;;;;;2.20;76.54;98022.41;1085401;47;1029;-80
2024/01/18 13:22:27;;;;;;;;;;;;;;;2.20;76.12;98027.69;1085374;47;1017;-80
2024/01/18 13:23:30;;;;;;;;;;;;;;;2.24;76.34;98031.72;1085138;47;1382;-80
2024/01/18 13:24:31;;;;;;;;;;;;;;;2.27;76.28;98035.88;1085226;47;1162;-80
2024/01/18 13:25:36;;;;;;;;;;;;;;;2.25;75.95;98038.66;1085295;47;1055;-79
2024/01/18 13:26:40;;;;;;;;;;;;;;;2.14;76.22;98041.44;1085996;54;1278;-79
2024/01/18 13:27:43;;;;;;;;;;;;;;;2.20;76.06;98040.88;1085855;47;1250;-79
2024/01/18 13:28:44;;;;;;;;;;;;;;;2.15;75.75;98043.94;1085236;54;2401;-79
2024/01/18 13:29:48;;;;;;;;;;;;;;;2.07;76.01;98051.72;1085783;54;1031;-79
2024/01/18 13:30:50;;;;;;;;;;;;;;;2.16;75.99;98060.59;1085707;54;1174;-80
2024/01/18 13:31:50;;;;;;;;;;;;;;;2.21;75.24;98055.72;1085581;54;1166;-79
2024/01/18 13:32:54;;;;;;;;;;;;;;;2.17;75.15;98067.53;1085655;54;1534;-80
2024/01/18 13:33:54;;;;;;;;;;;;;;;2.18;75.01;98063.91;1086039;47;1335;-80
2024/01/18 13:34:57;;;;;;;;;;;;;;;1.96;75.62;98067.66;1086000;47;1532;-80
2024/01/18 13:35:58;;;;;;;;;;;;;;;2.00;75.75;98071.69;1085229;47;1176;-79
2024/01/18 13:37:03;;;;;;;;;;;;;;;2.09;75.25;98072.66;1085754;54;1107;-80
2024/01/18 13:38:04;;;;;;;;;;;;;;;2.12;74.99;98083.78;1085190;54;1127;-80
2024/01/18 13:39:09;;;;;;;;;;;;;;;2.19;74.88;98091.94;1085569;47;1169;-80
2024/01/18 13:40:10;;;;;;;;;;;;;;;2.17;74.97;98081.53;1086241;54;1125;-79
2024/01/18 13:41:12;;;;;;;;;;;;;;;2.08;73.98;98090.28;1086465;54;1074;-80
2024/01/18 13:42:17;;;;;;;;;;;;;;;2.08;74.24;98092.91;1086515;47;1138;-79
2024/01/18 13:43:18;;;;;;;;;;;;;;;2.12;74.17;98090.84;1086702;47;1448;-80
2024/01/18 13:44:21;;;;;;;;;;;;;;;2.08;73.95;98095.56;1086988;54;1487;-79
2024/01/18 13:45:23;;;;;;;;;;;;;;;2.11;73.91;98099.72;1086327;46;1086;-80
2024/01/18 13:46:26;;;;;;;;;;;;;;;2.12;73.79;98111.94;1085805;47;1068;-78
2024/01/18 13:47:27;;;;;;;;;;;;;;;2.04;74.28;98104.69;1085770;47;1119;-80
2024/01/18 13:48:28;;;;;;;;;;;;;;;2.08;74.46;98111.38;1086050;54;1857;-80
2024/01/18 13:49:31;;;;;;;;;;;;;;;2.12;74.35;98117.19;1085979;54;1078;-79
2024/01/18 13:50:33;;;;;;;;;;;;;;;2.00;74.29;98112.06;1086314;54;1077;-80
2024/01/18 13:51:36;;;;;;;;;;;;;;;2.07;73.44;98114.97;1085917;54;1028;-79
2024/01/18 13:52:37;;;;;;;;;;;;;;;2.05;73.46;98116.91;1086527;47;1620;-79
2024/01/18 13:53:40;;;;;;;;;;;;;;;1.89;73.71;98122.72;1086543;54;1472;-78
2024/01/18 13:54:41;;;;;;;;;;;;;;;1.94;73.88;98125.78;1086270;47;1170;-79
2024/01/18 13:55:42;;;;;;;;;;;;;;;2.00;73.61;98119.13;1086034;51;1248;-80
2024/01/18 13:56:45;;;;;;;;;;;;;;;1.92;73.64;98135.63;1088155;54;1488;-79
2024/01/18 13:57:48;;;;;;;;;;;;;;;1.84;73.60;98127.56;1088312;54;1114;-79
2024/01/18 13:58:52;;;;;;;;;;;;;;;1.78;73.71;98131.59;1087400;54;1015;-77
2024/01/18 13:59:53;;;;;;;;;;;;;;;1.89;73.58;98135.88;1087609;54;1105;-77
2024/01/18 14:00:53;;;;;;;;;;;;;;;1.92;74.03;98133.00;1087974;54;1086;-79
2024/01/18 14:01:57;;;;;;;;;;;;;;;1.88;74.07;98134.25;1087664;47;1132;-78
2024/01/18 14:02:57;;;;;;;;;;;;;;;1.78;74.36;98143.94;1087510;47;986;-77
2024/01/18 14:04:00;;;;;;;;;;;;;;;1.84;73.97;98151.28;1086984;47;1358;-78
2024/01/18 14:05:03;;;;;;;;;;;;;;;1.92;73.97;98153.25;1087180;47;1137;-78
2024/01/18 14:06:05;;;;;;;;;;;;;;;1.92;73.87;98150.63;1087086;46;1072;-79
2024/01/18 14:07:08;;;;;;;;;;;;;;;1.93;73.97;98150.47;1086905;47;1145;-78
2024/01/18 14:08:09;;;;;;;;;;;;;;;2.01;74.03;98153.25;1086777;54;1857;-78
2024/01/18 14:09:12;;;;;;;;;;;;;;;2.00;73.81;98162.13;1087212;47;1078;-78
2024/01/18 14:10:14;;;;;;;;;;;;;;;2.08;73.60;98165.91;1087038;47;1073;-78
2024/01/18 14:11:17;;;;;;;;;;;;;;;2.09;73.60;98171.03;1087229;54;1090;-78
2024/01/18 14:12:18;;;;;;;;;;;;;;;2.15;73.55;98172.28;1087665;54;1061;-78
2024/01/18 14:13:24;;;;;;;;;;;;;;;2.14;73.87;98170.63;1087580;54;1074;-78
2024/01/18 14:14:25;;;;;;;;;;;;;;;2.16;73.58;98179.25;1086819;54;1184;-78
2024/01/18 14:15:25;;;;;;;;;;;;;;;1.95;73.69;98174.91;1087093;46;1104;-78
2024/01/18 14:16:29;;;;;;;;;;;;;;;1.97;73.71;98187.94;1086574;47;1130;-78
2024/01/18 14:17:29;;;;;;;;;;;;;;;2.00;73.53;98188.50;1086835;47;995;-78
2024/01/18 14:18:33;;;;;;;;;;;;;;;1.98;73.83;98200.16;1086924;54;1098;-77
2024/01/18 14:19:33;;;;;;;;;;;;;;;2.02;73.77;98202.38;1086909;47;999;-77
2024/01/18 14:20:37;;;;;;;;;;;;;;;2.06;73.46;98202.13;1087019;47;1055;-78
2024/01/18 14:21:37;;;;;;;;;;;;;;;2.02;73.10;98206.81;1086951;54;1087;-77
2024/01/18 14:22:41;;;;;;;;;;;;;;;1.91;73.76;98212.19;1087518;54;1019;-78
2024/01/18 14:23:43;;;;;;;;;;;;;;;2.01;73.49;98221.78;1086934;47;1583;-79
2024/01/18 14:24:46;;;;;;;;;;;;;;;1.81;73.44;98218.28;1087132;54;999;-77
2024/01/18 14:25:47;;;;;;;;;;;;;;;1.90;73.66;98231.63;1087536;54;1118;-78
2024/01/18 14:26:50;;;;;;;;;;;;;;;1.99;73.30;98229.00;1086808;47;960;-77
2024/01/18 14:27:51;;;;;;;;;;;;;;;2.08;73.35;98234.44;1086846;47;1099;-77
2024/01/18 14:28:56;;;;;;;;;;;;;;;2.12;73.40;98234.06;1087108;46;1841;-78
2024/01/18 14:29:57;;;;;;;;;;;;;;;2.07;73.44;98238.06;1086864;54;1130;-78
2024/01/18 14:31:00;;;;;;;;;;;;;;;2.08;73.42;98237.91;1086692;46;1221;-79
2024/01/18 14:32:01;;;;;;;;;;;;;;;2.12;73.11;98243.75;1087111;54;1135;-79
2024/01/18 14:33:05;;;;;;;;;;;;;;;2.13;73.38;98246.22;1087064;47;1430;-79
2024/01/18 14:34:05;;;;;;;;;;;;;;;2.21;73.23;98253.47;1087060;54;1422;-77
2024/01/18 14:35:07;;;;;;;;;;;;;;;2.23;73.66;98251.53;1087197;54;1007;-77
2024/01/18 14:36:11;;;;;;;;;;;;;;;2.26;73.56;98269.75;1087250;47;1068;-78
2024/01/18 14:37:11;;;;;;;;;;;;;;;2.34;73.40;98269.91;1086651;47;1118;-77
2024/01/18 14:38:16;;;;;;;;;;;;;;;2.37;73.13;98278.47;1086605;47;1166;-78
2024/01/18 14:39:16;;;;;;;;;;;;;;;2.36;73.40;98284.75;1087147;54;1067;-77
2024/01/18 14:40:20;;;;;;;;;;;;;;;2.39;73.24;98281.81;1086999;54;1035;-78
2024/01/18 14:41:20;;;;;;;;;;;;;;;2.39;72.98;98287.09;1087119;47;1060;-77
2024/01/18 14:42:23;;;;;;;;;;;;;;;2.40;72.97;98286.13;1086769;47;1067;-78
2024/01/18 14:43:26;;;;;;;;;;;;;;;2.42;73.01;98292.13;1086943;54;1046;-78
2024/01/18 14:44:32;;;;;;;;;;;;;;;2.46;72.84;98301.41;1086722;47;1138;-78
2024/01/18 14:45:32;;;;;;;;;;;;;;;2.48;72.68;98296.84;1086995;54;1035;-79
2024/01/18 14:46:36;;;;;;;;;;;;;;;2.50;72.34;98305.44;1086898;47;1114;-77
2024/01/18 14:47:36;;;;;;;;;;;;;;;2.41;72.39;98306.28;1087194;54;1031;-78
2024/01/18 14:48:39;;;;;;;;;;;;;;;2.46;72.02;98307.53;1087107;47;1858;-78
2024/01/18 14:49:41;;;;;;;;;;;;;;;2.42;72.06;98307.94;1087046;47;1185;-77
2024/01/18 14:50:44;;;;;;;;;;;;;;;2.37;72.10;98310.13;1087253;54;1011;-78
2024/01/18 14:51:45;;;;;;;;;;;;;;;2.23;72.09;98324.53;1087227;46;1075;-77
2024/01/18 14:52:48;;;;;;;;;;;;;;;2.24;72.18;98321.78;1087079;46;1121;-77
2024/01/18 14:53:49;;;;;;;;;;;;;;;2.32;71.93;98316.66;1086764;54;1298;-77
2024/01/18 14:54:53;;;;;;;;;;;;;;;2.28;71.95;98317.06;1086747;47;1129;-78
2024/01/18 14:55:53;;;;;;;;;;;;;;;2.24;72.47;98324.41;1087026;47;1066;-78
2024/01/18 14:56:57;;;;;;;;;;;;;;;2.25;71.82;98325.22;1087186;47;1157;-77
2024/01/18 14:57:57;;;;;;;;;;;;;;;2.22;72.18;98328.97;1087294;54;1150;-77
2024/01/18 14:59:00;;;;;;;;;;;;;;;2.18;72.27;98331.06;1087417;47;1500;-77
2024/01/18 15:00:09;;;;;;;;;;;;;;;2.26;72.19;98340.94;1087296;47;1165;-78
2024/01/18 15:01:12;;;;;;;;;;;;;;;2.16;72.10;98350.63;1087130;54;1018;-78
2024/01/18 15:02:13;;;;;;;;;;;;;;;2.26;71.98;98353.28;1087173;46;1165;-77
2024/01/18 15:03:17;;;;;;;;;;;;;;;2.27;71.56;98355.78;1087096;47;1080;-78
2024/01/18 15:04:17;;;;;;;;;;;;;;;2.27;71.78;98365.50;1087079;47;1460;-78
2024/01/18 15:05:20;;;;;;;;;;;;;;;2.25;72.01;98372.69;1087255;47;1094;-77
2024/01/18 15:06:21;;;;;;;;;;;;;;;2.30;71.80;98373.97;1087314;54;1063;-78
2024/01/18 15:07:25;;;;;;;;;;;;;;;2.24;72.13;98379.78;1087419;47;1410;-78
2024/01/18 15:08:26;;;;;;;;;;;;;;;2.32;71.88;98382.59;1087278;47;1845;-78
2024/01/18 15:09:30;;;;;;;;;;;;;;;2.36;71.75;98385.78;1087324;47;1009;-79
2024/01/18 15:10:30;;;;;;;;;;;;;;;2.31;71.48;98394.09;1087569;54;1621;-78
2024/01/18 15:11:34;;;;;;;;;;;;;;;2.28;71.12;98402.28;1087370;47;1409;-78
2024/01/18 15:12:35;;;;;;;;;;;;;;;2.33;70.99;98394.81;1087619;54;1031;-77
2024/01/18 15:13:40;;;;;;;;;;;;;;;2.30;71.09;98399.53;1087523;47;1246;-78
2024/01/18 15:14:40;;;;;;;;;;;;;;;2.31;71.02;98404.66;1087394;54;1030;-78
2024/01/18 15:15:46;;;;;;;;;;;;;;;2.19;71.45;98403.06;1087398;47;944;-78
2024/01/18 15:16:47;;;;;;;;;;;;;;;2.26;71.29;98401.59;1087286;47;1114;-79
2024/01/18 15:17:50;;;;;;;;;;;;;;;2.25;71.33;98409.63;1087475;47;1099;-78
2024/01/18 15:18:51;;;;;;;;;;;;;;;2.24;71.44;98406.16;1087235;47;1032;-78
2024/01/18 15:19:54;;;;;;;;;;;;;;;2.29;71.29;98413.69;1087532;47;917;-79
2024/01/18 15:20:54;;;;;;;;;;;;;;;2.25;71.31;98413.09;1087242;54;1121;-77
2024/01/18 15:21:55;;;;;;;;;;;;;;;2.30;70.89;98421.44;1087244;47;955;-77
2024/01/18 15:22:59;;;;;;;;;;;;;;;2.30;70.76;98417.97;1087346;54;1011;-79
2024/01/18 15:24:00;;;;;;;;;;;;;;;2.24;71.30;98421.97;1087281;46;1438;-78
2024/01/18 15:25:00;;;;;;;;;;;;;;;2.26;71.19;98437.66;1087179;46;1028;-78
2024/01/18 15:26:03;;;;;;;;;;;;;;;2.28;71.65;98428.66;1087206;47;1163;-78
2024/01/18 15:27:04;;;;;;;;;;;;;;;2.32;71.35;98432.69;1087368;47;1086;-79
2024/01/18 15:28:07;;;;;;;;;;;;;;;2.36;71.45;98441.19;1087522;46;1086;-77
2024/01/18 15:29:08;;;;;;;;;;;;;;;2.38;71.23;98441.03;1087407;47;1968;-79
2024/01/18 15:30:14;;;;;;;;;;;;;;;2.43;71.37;98447.59;1087482;54;1169;-78
2024/01/18 15:31:17;;;;;;;;;;;;;;;2.45;71.07;98444.84;1087403;51;1205;-81
2024/01/18 15:32:20;;;;;;;;;;;;;;;2.42;70.90;98445.09;1087255;47;1598;-78
2024/01/18 15:33:21;;;;;;;;;;;;;;;2.49;70.98;98456.78;1087618;47;1418;-78
2024/01/18 15:34:24;;;;;;;;;;;;;;;2.47;70.80;98453.44;1087563;47;1395;-78
2024/01/18 15:35:25;;;;;;;;;;;;;;;2.44;70.58;98470.38;1087494;54;1141;-79
2024/01/18 15:36:29;;;;;;;;;;;;;;;2.45;70.48;98472.03;1087831;46;1046;-80
2024/01/18 15:37:30;;;;;;;;;;;;;;;2.41;70.25;98475.06;1087920;47;1130;-78
2024/01/18 15:38:35;;;;;;;;;;;;;;;2.34;70.48;98477.41;1087541;47;1471;-79
2024/01/18 15:39:36;;;;;;;;;;;;;;;2.23;70.50;98486.22;1087930;54;1053;-77
2024/01/18 15:40:39;;;;;;;;;;;;;;;2.25;70.65;98489.56;1087711;47;1117;-79
2024/01/18 15:41:44;;;;;;;;;;;;;;;2.30;70.72;98491.81;1087916;46;1129;-79
2024/01/18 15:42:47;;;;;;;;;;;;;;;2.29;70.68;98496.25;1087783;47;1029;-80
2024/01/18 15:43:48;;;;;;;;;;;;;;;2.34;70.32;98507.25;1087603;47;1214;-79
2024/01/18 15:44:49;;;;;;;;;;;;;;;2.30;70.53;98497.09;1087887;54;1105;-80
2024/01/18 15:45:52;;;;;;;;;;;;;;;2.34;70.37;98496.72;1087347;54;1192;-79
2024/01/18 15:47:03;;;;;;;;;;;;;;;2.36;70.35;98507.13;1087366;47;1132;-79
2024/01/18 15:48:06;;;;;;;;;;;;;;;2.24;70.60;98508.16;1087607;47;995;-77
2024/01/18 15:49:07;;;;;;;;;;;;;;;2.29;70.36;98525.25;1087427;54;1845;-77
2024/01/18 15:50:11;;;;;;;;;;;;;;;2.31;70.29;98533.88;1087347;47;1100;-77
2024/01/18 15:51:15;;;;;;;;;;;;;;;2.31;70.13;98533.88;1087380;47;1133;-77
2024/01/18 15:52:19;;;;;;;;;;;;;;;2.34;70.23;98538.91;1087355;54;1149;-77
2024/01/18 15:53:20;;;;;;;;;;;;;;;2.32;70.09;98538.19;1087377;54;1142;-77
2024/01/18 15:54:23;;;;;;;;;;;;;;;2.34;70.36;98545.97;1087098;46;1140;-78
2024/01/18 15:55:24;;;;;;;;;;;;;;;2.31;70.29;98541.78;1086902;54;1681;-79
2024/01/18 15:56:27;;;;;;;;;;;;;;;2.39;70.32;98550.84;1086690;54;991;-78
2024/01/18 15:57:28;;;;;;;;;;;;;;;2.41;70.06;98554.22;1086964;47;1058;-78
2024/01/18 15:58:31;;;;;;;;;;;;;;;2.23;70.13;98554.78;1087147;54;1525;-79
2024/01/18 15:59:32;;;;;;;;;;;;;;;2.25;70.24;98566.06;1086858;47;1062;-79
2024/01/18 16:00:35;;;;;;;;;;;;;;;2.21;69.94;98564.63;1086829;47;1081;-79
2024/01/18 16:01:36;;;;;;;;;;;;;;;2.27;69.99;98563.28;1086986;54;1035;-77
2024/01/18 16:02:42;;;;;;;;;;;;;;;2.28;70.10;98565.78;1086831;46;1003;-78
2024/01/18 16:03:42;;;;;;;;;;;;;;;2.24;70.00;98569.66;1086893;47;1288;-78
2024/01/18 16:04:45;;;;;;;;;;;;;;;2.26;69.95;98572.16;1087048;47;1082;-78
2024/01/18 16:05:46;;;;;;;;;;;;;;;2.33;70.07;98576.78;1087015;54;1422;-78
2024/01/18 16:06:47;;;;;;;;;;;;;;;2.31;69.59;98583.16;1087084;47;1012;-78
2024/01/18 16:07:50;;;;;;;;;;;;;;;2.32;69.75;98596.22;1086840;47;1062;-78
2024/01/18 16:08:50;;;;;;;;;;;;;;;2.32;70.23;98604.13;1086753;47;1849;-78
2024/01/18 16:09:51;;;;;;;;;;;;;;;2.36;70.22;98603.88;1086825;54;1059;-78
2024/01/18 16:10:54;;;;;;;;;;;;;;;2.33;70.35;98608.44;1086669;47;1027;-79
2024/01/18 16:11:55;;;;;;;;;;;;;;;2.32;70.33;98619.97;1086637;47;960;-79
2024/01/18 16:13:00;;;;;;;;;;;;;;;2.40;70.36;98615.84;1086803;47;1058;-78
2024/01/18 16:14:00;;;;;;;;;;;;;;;2.39;70.13;98619.44;1086760;54;1351;-78
2024/01/18 16:15:04;;;;;;;;;;;;;;;2.34;70.37;98618.03;1086623;47;1059;-78